sensor_id;sensor_type;location;lat;lon;timestamp;pressure;altitude;pressure_sealevel;temperature;humidity
6514;BME280;3290;47.716;9.070;2022-07-24T00:02:18;97254.78;;;23.60;100.00
6514;BME280;3290;47.716;9.070;2022-07-24T00:04:43;97261.13;;;23.40;100.00
6514;BME280;3290;47.716;9.070;2022-07-24T00:07:09;97266.19;;;23.65;100.00
6514;BME280;3290;47.716;9.070;2022-07-24T00:09:34;97267.66;;;23.53;100.00
6514;BME280;3290;47.716;9.070;2022-07-24T00:11:59;97267.59;;;23.58;100.00
6514;BME280;3290;47.716;9.070;2022-07-24T00:14:25;97268.16;;;23.55;100.00
6514;BME280;3290;47.716;9.070;2022-07-24T00:16:51;97266.41;;;23.69;100.00
6514;BME280;3290;47.716;9.070;2022-07-24T00:19:16;97267.16;;;23.51;100.00
6514;BME280;3290;47.716;9.070;2022-07-24T00:21:42;97265.06;;;23.48;100.00
6514;BME280;3290;47.716;9.070;2022-07-24T00:24:07;97263.03;;;23.40;100.00
6514;BME280;3290;47.716;9.070;2022-07-24T00:26:33;97261.34;;;23.26;100.00
6514;BME280;3290;47.716;9.070;2022-07-24T00:28:59;97256.31;;;23.19;100.00
6514;BME280;3290;47.716;9.070;2022-07-24T00:31:25;97254.66;;;23.23;100.00
6514;BME280;3290;47.716;9.070;2022-07-24T00:33:50;97258.06;;;23.29;100.00
6514;BME280;3290;47.716;9.070;2022-07-24T00:36:16;97259.97;;;23.05;100.00
6514;BME280;3290;47.716;9.070;2022-07-24T00:38:42;97255.81;;;23.17;100.00
6514;BME280;3290;47.716;9.070;2022-07-24T00:41:07;97256.94;;;23.11;100.00
6514;BME280;3290;47.716;9.070;2022-07-24T00:43:32;97260.75;;;23.05;100.00
6514;BME280;3290;47.716;9.070;2022-07-24T00:45:58;97258.88;;;23.06;100.00
6514;BME280;3290;47.716;9.070;2022-07-24T00:48:23;97256.31;;;23.19;100.00
6514;BME280;3290;47.716;9.070;2022-07-24T00:50:49;97259.97;;;23.28;100.00
6514;BME280;3290;47.716;9.070;2022-07-24T00:53:15;97256.06;;;23.39;100.00
6514;BME280;3290;47.716;9.070;2022-07-24T00:55:41;97253.44;;;23.34;100.00
6514;BME280;3290;47.716;9.070;2022-07-24T00:58:07;97257.78;;;23.30;100.00
6514;BME280;3290;47.716;9.070;2022-07-24T01:00:33;97250.91;;;23.24;100.00
6514;BME280;3290;47.716;9.070;2022-07-24T01:02:58;97251.44;;;23.03;100.00
6514;BME280;3290;47.716;9.070;2022-07-24T01:05:24;97253.56;;;23.01;100.00
6514;BME280;3290;47.716;9.070;2022-07-24T01:07:49;97258.13;;;23.00;100.00
6514;BME280;3290;47.716;9.070;2022-07-24T01:10:15;97250.22;;;22.91;100.00
6514;BME280;3290;47.716;9.070;2022-07-24T01:12:40;97254.56;;;22.82;100.00
6514;BME280;3290;47.716;9.070;2022-07-24T01:15:08;97250.13;;;22.72;100.00
6514;BME280;3290;47.716;9.070;2022-07-24T01:17:35;97247.22;;;22.69;100.00
6514;BME280;3290;47.716;9.070;2022-07-24T01:20:02;97250.53;;;22.56;100.00
6514;BME280;3290;47.716;9.070;2022-07-24T01:22:28;97251.09;;;22.53;100.00
6514;BME280;3290;47.716;9.070;2022-07-24T01:24:54;97247.84;;;22.61;100.00
6514;BME280;3290;47.716;9.070;2022-07-24T01:27:21;97253.34;;;22.41;100.00
6514;BME280;3290;47.716;9.070;2022-07-24T01:29:47;97241.66;;;22.60;100.00
6514;BME280;3290;47.716;9.070;2022-07-24T01:32:13;97247.72;;;22.71;100.00
6514;BME280;3290;47.716;9.070;2022-07-24T01:34:38;97245.78;;;22.76;100.00
6514;BME280;3290;47.716;9.070;2022-07-24T01:37:04;97252.88;;;22.91;100.00
6514;BME280;3290;47.716;9.070;2022-07-24T01:39:29;97252.41;;;22.84;100.00
6514;BME280;3290;47.716;9.070;2022-07-24T01:41:55;97256.09;;;22.88;100.00
6514;BME280;3290;47.716;9.070;2022-07-24T01:44:20;97259.34;;;22.85;100.00
6514;BME280;3290;47.716;9.070;2022-07-24T01:46:46;97254.84;;;22.80;100.00
6514;BME280;3290;47.716;9.070;2022-07-24T01:49:11;97248.94;;;22.55;100.00
6514;BME280;3290;47.716;9.070;2022-07-24T01:51:37;97256.63;;;22.33;100.00
6514;BME280;3290;47.716;9.070;2022-07-24T01:54:02;97264.38;;;22.35;100.00
6514;BME280;3290;47.716;9.070;2022-07-24T01:56:30;97262.28;;;22.27;100.00
6514;BME280;3290;47.716;9.070;2022-07-24T01:58:55;97254.00;;;22.28;100.00
6514;BME280;3290;47.716;9.070;2022-07-24T02:01:21;97253.44;;;22.31;100.00
6514;BME280;3290;47.716;9.070;2022-07-24T02:03:46;97246.50;;;22.30;100.00
6514;BME280;3290;47.716;9.070;2022-07-24T02:06:12;97256.03;;;22.36;100.00
6514;BME280;3290;47.716;9.070;2022-07-24T02:08:37;97255.22;;;22.03;100.00
6514;BME280;3290;47.716;9.070;2022-07-24T02:11:03;97248.78;;;22.09;100.00
6514;BME280;3290;47.716;9.070;2022-07-24T02:13:29;97251.84;;;22.30;100.00
6514;BME280;3290;47.716;9.070;2022-07-24T02:15:54;97241.38;;;22.34;100.00
6514;BME280;3290;47.716;9.070;2022-07-24T02:18:19;97244.34;;;22.32;100.00
6514;BME280;3290;47.716;9.070;2022-07-24T02:20:45;97247.53;;;22.34;100.00
6514;BME280;3290;47.716;9.070;2022-07-24T02:23:10;97248.69;;;22.23;100.00
6514;BME280;3290;47.716;9.070;2022-07-24T02:25:36;97256.16;;;22.26;100.00
6514;BME280;3290;47.716;9.070;2022-07-24T02:28:01;97251.59;;;22.27;100.00
6514;BME280;3290;47.716;9.070;2022-07-24T02:30:26;97260.31;;;22.37;100.00
6514;BME280;3290;47.716;9.070;2022-07-24T02:32:52;97256.16;;;22.26;100.00
6514;BME280;3290;47.716;9.070;2022-07-24T02:35:17;97255.91;;;22.23;100.00
6514;BME280;3290;47.716;9.070;2022-07-24T02:37:44;97258.88;;;22.16;100.00
6514;BME280;3290;47.716;9.070;2022-07-24T02:40:10;97253.53;;;22.11;100.00
6514;BME280;3290;47.716;9.070;2022-07-24T02:42:37;97256.72;;;22.13;100.00
6514;BME280;3290;47.716;9.070;2022-07-24T02:45:04;97255.31;;;21.93;100.00
6514;BME280;3290;47.716;9.070;2022-07-24T02:47:30;97253.63;;;22.02;100.00
6514;BME280;3290;47.716;9.070;2022-07-24T02:49:55;97250.34;;;22.09;100.00
6514;BME280;3290;47.716;9.070;2022-07-24T02:52:21;97251.31;;;21.85;100.00
6514;BME280;3290;47.716;9.070;2022-07-24T02:54:46;97251.19;;;21.67;100.00
6514;BME280;3290;47.716;9.070;2022-07-24T02:57:11;97253.09;;;21.62;100.00
6514;BME280;3290;47.716;9.070;2022-07-24T02:59:37;97257.63;;;21.61;100.00
6514;BME280;3290;47.716;9.070;2022-07-24T03:02:02;97255.47;;;21.63;100.00
6514;BME280;3290;47.716;9.070;2022-07-24T03:04:28;97258.97;;;21.59;100.00
6514;BME280;3290;47.716;9.070;2022-07-24T03:06:53;97264.09;;;21.45;100.00
6514;BME280;3290;47.716;9.070;2022-07-24T03:09:19;97257.34;;;21.63;100.00
6514;BME280;3290;47.716;9.070;2022-07-24T03:11:44;97266.66;;;21.70;100.00
6514;BME280;3290;47.716;9.070;2022-07-24T03:14:09;97265.19;;;21.29;100.00
6514;BME280;3290;47.716;9.070;2022-07-24T03:16:35;97271.34;;;21.30;100.00
6514;BME280;3290;47.716;9.070;2022-07-24T03:19:02;97263.56;;;21.43;100.00
6514;BME280;3290;47.716;9.070;2022-07-24T03:21:27;97267.97;;;21.72;100.00
6514;BME280;3290;47.716;9.070;2022-07-24T03:23:53;97263.38;;;21.78;100.00
6514;BME280;3290;47.716;9.070;2022-07-24T03:26:18;97265.00;;;21.74;100.00
6514;BME280;3290;47.716;9.070;2022-07-24T03:28:43;97273.41;;;21.48;100.00
6514;BME280;3290;47.716;9.070;2022-07-24T03:31:09;97265.16;;;21.44;100.00
6514;BME280;3290;47.716;9.070;2022-07-24T03:33:34;97267.31;;;21.37;100.00
6514;BME280;3290;47.716;9.070;2022-07-24T03:36:00;97263.09;;;21.27;100.00
6514;BME280;3290;47.716;9.070;2022-07-24T03:38:26;97270.25;;;21.36;100.00
6514;BME280;3290;47.716;9.070;2022-07-24T03:40:51;97264.13;;;21.30;100.00
6514;BME280;3290;47.716;9.070;2022-07-24T03:43:17;97267.31;;;21.37;100.00
6514;BME280;3290;47.716;9.070;2022-07-24T03:45:42;97275.06;;;21.44;100.00
6514;BME280;3290;47.716;9.070;2022-07-24T03:48:08;97270.03;;;21.23;100.00
6514;BME280;3290;47.716;9.070;2022-07-24T03:50:34;97264.16;;;21.26;100.00
6514;BME280;3290;47.716;9.070;2022-07-24T03:53:00;97269.44;;;21.40;100.00
6514;BME280;3290;47.716;9.070;2022-07-24T03:55:25;97267.41;;;21.13;100.00
6514;BME280;3290;47.716;9.070;2022-07-24T03:57:50;97265.78;;;21.17;100.00
6514;BME280;3290;47.716;9.070;2022-07-24T04:00:16;97268.41;;;21.27;100.00
6514;BME280;3290;47.716;9.070;2022-07-24T04:02:42;97278.00;;;21.27;100.00
6514;BME280;3290;47.716;9.070;2022-07-24T04:05:08;97274.19;;;21.53;100.00
6514;BME280;3290;47.716;9.070;2022-07-24T04:07:35;97277.66;;;21.49;100.00
6514;BME280;3290;47.716;9.070;2022-07-24T04:10:00;97285.38;;;21.60;100.00
6514;BME280;3290;47.716;9.070;2022-07-24T04:12:26;97283.31;;;21.37;100.00
6514;BME280;3290;47.716;9.070;2022-07-24T04:14:51;97289.22;;;21.20;100.00
6514;BME280;3290;47.716;9.070;2022-07-24T04:17:17;97284.44;;;21.12;100.00
6514;BME280;3290;47.716;9.070;2022-07-24T04:19:42;97290.84;;;21.16;100.00
6514;BME280;3290;47.716;9.070;2022-07-24T04:22:07;97284.16;;;21.28;100.00
6514;BME280;3290;47.716;9.070;2022-07-24T04:24:33;97288.19;;;21.11;100.00
6514;BME280;3290;47.716;9.070;2022-07-24T04:26:59;97291.94;;;21.05;100.00
6514;BME280;3290;47.716;9.070;2022-07-24T04:29:24;97297.56;;;21.03;100.00
6514;BME280;3290;47.716;9.070;2022-07-24T04:31:49;97285.22;;;21.22;100.00
6514;BME280;3290;47.716;9.070;2022-07-24T04:34:15;97295.34;;;21.25;100.00
6514;BME280;3290;47.716;9.070;2022-07-24T04:36:40;97290.28;;;21.28;100.00
6514;BME280;3290;47.716;9.070;2022-07-24T04:39:05;97292.16;;;21.23;100.00
6514;BME280;3290;47.716;9.070;2022-07-24T04:41:31;97295.09;;;21.12;100.00
6514;BME280;3290;47.716;9.070;2022-07-24T04:43:56;97290.88;;;20.96;100.00
6514;BME280;3290;47.716;9.070;2022-07-24T04:46:22;97290.34;;;21.04;100.00
6514;BME280;3290;47.716;9.070;2022-07-24T04:48:47;97287.63;;;21.19;100.00
6514;BME280;3290;47.716;9.070;2022-07-24T04:51:12;97283.31;;;21.32;100.00
6514;BME280;3290;47.716;9.070;2022-07-24T04:53:38;97289.19;;;21.29;100.00
6514;BME280;3290;47.716;9.070;2022-07-24T04:56:04;97289.69;;;21.36;100.00
6514;BME280;3290;47.716;9.070;2022-07-24T04:58:29;97293.47;;;21.30;100.00
6514;BME280;3290;47.716;9.070;2022-07-24T05:00:54;97296.56;;;21.62;100.00
6514;BME280;3290;47.716;9.070;2022-07-24T05:03:20;97301.47;;;21.88;100.00
6514;BME280;3290;47.716;9.070;2022-07-24T05:05:45;97304.63;;;22.00;100.00
6514;BME280;3290;47.716;9.070;2022-07-24T05:08:11;97300.03;;;22.06;100.00
6514;BME280;3290;47.716;9.070;2022-07-24T05:10:36;97302.34;;;22.22;100.00
6514;BME280;3290;47.716;9.070;2022-07-24T05:13:01;97303.69;;;22.24;100.00
6514;BME280;3290;47.716;9.070;2022-07-24T05:15:27;97310.41;;;22.50;100.00
6514;BME280;3290;47.716;9.070;2022-07-24T05:17:53;97314.16;;;22.54;100.00
6514;BME280;3290;47.716;9.070;2022-07-24T05:20:18;97311.06;;;22.70;100.00
6514;BME280;3290;47.716;9.070;2022-07-24T05:22:43;97303.97;;;22.56;100.00
6514;BME280;3290;47.716;9.070;2022-07-24T05:25:09;97304.66;;;22.38;100.00
6514;BME280;3290;47.716;9.070;2022-07-24T05:27:34;97306.69;;;22.51;100.00
6514;BME280;3290;47.716;9.070;2022-07-24T05:30:00;97301.19;;;22.66;100.00
6514;BME280;3290;47.716;9.070;2022-07-24T05:32:25;97296.47;;;22.58;100.00
6514;BME280;3290;47.716;9.070;2022-07-24T05:34:50;97306.16;;;22.82;100.00
6514;BME280;3290;47.716;9.070;2022-07-24T05:37:16;97301.94;;;23.04;100.00
6514;BME280;3290;47.716;9.070;2022-07-24T05:39:41;97300.19;;;23.18;100.00
6514;BME280;3290;47.716;9.070;2022-07-24T05:42:07;97295.69;;;23.37;100.00
6514;BME280;3290;47.716;9.070;2022-07-24T05:44:32;97298.97;;;23.29;100.00
6514;BME280;3290;47.716;9.070;2022-07-24T05:46:57;97299.56;;;23.26;100.00
6514;BME280;3290;47.716;9.070;2022-07-24T05:49:23;97302.09;;;23.36;100.00
6514;BME280;3290;47.716;9.070;2022-07-24T05:51:48;97296.78;;;23.59;100.00
6514;BME280;3290;47.716;9.070;2022-07-24T05:54:14;97302.19;;;23.31;100.00
6514;BME280;3290;47.716;9.070;2022-07-24T05:56:39;97301.81;;;23.37;100.00
6514;BME280;3290;47.716;9.070;2022-07-24T05:59:05;97302.28;;;23.68;100.00
6514;BME280;3290;47.716;9.070;2022-07-24T06:01:30;97304.13;;;23.90;100.00
6514;BME280;3290;47.716;9.070;2022-07-24T06:03:57;97307.09;;;24.07;100.00
6514;BME280;3290;47.716;9.070;2022-07-24T06:06:23;97301.53;;;24.04;100.00
6514;BME280;3290;47.716;9.070;2022-07-24T06:08:48;97300.91;;;24.12;100.00
6514;BME280;3290;47.716;9.070;2022-07-24T06:11:14;97301.00;;;24.20;100.00
6514;BME280;3290;47.716;9.070;2022-07-24T06:13:39;97299.94;;;24.03;100.00
6514;BME280;3290;47.716;9.070;2022-07-24T06:16:05;97302.84;;;24.24;100.00
6514;BME280;3290;47.716;9.070;2022-07-24T06:18:30;97300.63;;;24.31;100.00
6514;BME280;3290;47.716;9.070;2022-07-24T06:20:55;97303.31;;;23.72;100.00
6514;BME280;3290;47.716;9.070;2022-07-24T06:23:21;97304.53;;;23.61;100.00
6514;BME280;3290;47.716;9.070;2022-07-24T06:25:46;97303.03;;;23.91;100.00
6514;BME280;3290;47.716;9.070;2022-07-24T06:28:12;97303.41;;;24.03;100.00
6514;BME280;3290;47.716;9.070;2022-07-24T06:30:37;97301.53;;;24.40;100.00
6514;BME280;3290;47.716;9.070;2022-07-24T06:33:03;97305.59;;;24.19;100.00
6514;BME280;3290;47.716;9.070;2022-07-24T06:35:28;97298.44;;;24.33;100.00
6514;BME280;3290;47.716;9.070;2022-07-24T06:37:57;97310.00;;;24.79;100.00
6514;BME280;3290;47.716;9.070;2022-07-24T06:40:23;97312.97;;;24.46;99.42
6514;BME280;3290;47.716;9.070;2022-07-24T06:42:49;97302.53;;;24.62;99.09
6514;BME280;3290;47.716;9.070;2022-07-24T06:45:14;97296.47;;;24.57;98.71
6514;BME280;3290;47.716;9.070;2022-07-24T06:47:41;97308.41;;;24.10;100.00
6514;BME280;3290;47.716;9.070;2022-07-24T06:50:07;97309.53;;;24.90;97.93
6514;BME280;3290;47.716;9.070;2022-07-24T06:52:33;97303.09;;;24.91;96.64
6514;BME280;3290;47.716;9.070;2022-07-24T06:54:58;97308.44;;;24.91;94.66
6514;BME280;3290;47.716;9.070;2022-07-24T06:57:24;97304.13;;;24.95;96.00
6514;BME280;3290;47.716;9.070;2022-07-24T06:59:51;97306.47;;;24.83;95.94
6514;BME280;3290;47.716;9.070;2022-07-24T07:02:18;97304.78;;;24.87;96.30
6514;BME280;3290;47.716;9.070;2022-07-24T07:04:43;97306.16;;;25.43;91.64
6514;BME280;3290;47.716;9.070;2022-07-24T07:07:09;97303.94;;;25.05;93.74
6514;BME280;3290;47.716;9.070;2022-07-24T07:09:34;97302.88;;;25.06;95.25
6514;BME280;3290;47.716;9.070;2022-07-24T07:12:01;97294.84;;;25.59;92.40
6514;BME280;3290;47.716;9.070;2022-07-24T07:14:26;97301.78;;;25.47;92.01
6514;BME280;3290;47.716;9.070;2022-07-24T07:16:52;97301.69;;;25.65;90.52
6514;BME280;3290;47.716;9.070;2022-07-24T07:19:17;97300.81;;;25.70;89.82
6514;BME280;3290;47.716;9.070;2022-07-24T07:21:43;97301.16;;;25.90;88.34
6514;BME280;3290;47.716;9.070;2022-07-24T07:24:08;97297.13;;;26.27;87.01
6514;BME280;3290;47.716;9.070;2022-07-24T07:26:34;97306.53;;;26.03;86.61
6514;BME280;3290;47.716;9.070;2022-07-24T07:28:59;97299.41;;;25.59;85.61
6514;BME280;3290;47.716;9.070;2022-07-24T07:31:25;97302.91;;;25.73;85.54
6514;BME280;3290;47.716;9.070;2022-07-24T07:33:51;97302.31;;;25.62;88.01
6514;BME280;3290;47.716;9.070;2022-07-24T07:36:17;97300.41;;;26.24;85.38
6514;BME280;3290;47.716;9.070;2022-07-24T07:38:42;97302.56;;;25.87;86.40
6514;BME280;3290;47.716;9.070;2022-07-24T07:41:08;97297.88;;;26.06;83.17
6514;BME280;3290;47.716;9.070;2022-07-24T07:43:33;97301.91;;;26.30;83.99
6514;BME280;3290;47.716;9.070;2022-07-24T07:45:59;97296.94;;;26.24;83.16
6514;BME280;3290;47.716;9.070;2022-07-24T07:48:24;97285.00;;;27.03;79.00
6514;BME280;3290;47.716;9.070;2022-07-24T07:50:49;97279.31;;;27.90;72.53
6514;BME280;3290;47.716;9.070;2022-07-24T07:53:15;97287.59;;;28.02;71.87
6514;BME280;3290;47.716;9.070;2022-07-24T07:55:40;97285.53;;;26.84;76.92
6514;BME280;3290;47.716;9.070;2022-07-24T07:58:06;97281.19;;;27.35;75.60
6514;BME280;3290;47.716;9.070;2022-07-24T08:00:32;97281.41;;;27.08;78.48
6514;BME280;3290;47.716;9.070;2022-07-24T08:02:58;97274.59;;;27.10;77.22
6514;BME280;3290;47.716;9.070;2022-07-24T08:05:23;97280.53;;;27.68;76.63
6514;BME280;3290;47.716;9.070;2022-07-24T08:07:49;97275.94;;;27.21;73.88
6514;BME280;3290;47.716;9.070;2022-07-24T08:10:15;97271.94;;;27.49;74.33
6514;BME280;3290;47.716;9.070;2022-07-24T08:12:40;97277.88;;;26.99;76.54
6514;BME280;3290;47.716;9.070;2022-07-24T08:15:06;97281.75;;;26.41;78.43
6514;BME280;3290;47.716;9.070;2022-07-24T08:17:32;97279.63;;;27.03;76.59
6514;BME280;3290;47.716;9.070;2022-07-24T08:19:57;97272.97;;;27.86;73.22
6514;BME280;3290;47.716;9.070;2022-07-24T08:22:26;97270.44;;;27.90;71.06
6514;BME280;3290;47.716;9.070;2022-07-24T08:24:53;97268.84;;;27.34;73.36
6514;BME280;3290;47.716;9.070;2022-07-24T08:27:19;97276.28;;;27.75;72.77
6514;BME280;3290;47.716;9.070;2022-07-24T08:29:44;97276.75;;;27.30;71.96
6514;BME280;3290;47.716;9.070;2022-07-24T08:32:09;97281.38;;;27.85;70.62
6514;BME280;3290;47.716;9.070;2022-07-24T08:34:35;97267.34;;;28.30;68.12
6514;BME280;3290;47.716;9.070;2022-07-24T08:37:00;97273.50;;;28.30;67.44
6514;BME280;3290;47.716;9.070;2022-07-24T08:39:26;97264.81;;;28.25;68.96
6514;BME280;3290;47.716;9.070;2022-07-24T08:41:51;97270.34;;;28.12;67.32
6514;BME280;3290;47.716;9.070;2022-07-24T08:44:16;97262.72;;;28.14;68.29
6514;BME280;3290;47.716;9.070;2022-07-24T08:46:42;97273.50;;;28.30;68.59
6514;BME280;3290;47.716;9.070;2022-07-24T08:49:10;97269.50;;;27.94;68.76
6514;BME280;3290;47.716;9.070;2022-07-24T08:51:37;97273.00;;;28.03;71.12
6514;BME280;3290;47.716;9.070;2022-07-24T08:54:03;97271.91;;;29.34;66.29
6514;BME280;3290;47.716;9.070;2022-07-24T08:56:29;97268.47;;;29.08;67.77
6514;BME280;3290;47.716;9.070;2022-07-24T08:58:54;97279.34;;;28.91;68.67
6514;BME280;3290;47.716;9.070;2022-07-24T09:01:21;97276.66;;;28.91;69.38
6514;BME280;3290;47.716;9.070;2022-07-24T09:03:47;97277.16;;;28.26;71.40
6514;BME280;3290;47.716;9.070;2022-07-24T09:06:14;97260.84;;;29.10;71.13
6514;BME280;3290;47.716;9.070;2022-07-24T09:08:41;97271.63;;;28.14;72.78
6514;BME280;3290;47.716;9.070;2022-07-24T09:11:08;97272.31;;;27.73;74.75
6514;BME280;3290;47.716;9.070;2022-07-24T09:13:35;97266.97;;;27.42;76.12
6514;BME280;3290;47.716;9.070;2022-07-24T09:16:24;97256.44;;;28.97;72.86
6514;BME280;3290;47.716;9.070;2022-07-24T09:19:01;97261.00;;;28.09;73.93
6514;BME280;3290;47.716;9.070;2022-07-24T09:21:31;97262.56;;;28.10;73.54
6514;BME280;3290;47.716;9.070;2022-07-24T09:23:57;97265.41;;;28.56;72.20
6514;BME280;3290;47.716;9.070;2022-07-24T09:26:43;97254.78;;;29.87;68.86
6514;BME280;3290;47.716;9.070;2022-07-24T09:29:11;97257.56;;;29.79;67.95
6514;BME280;3290;47.716;9.070;2022-07-24T09:32:00;97257.81;;;29.11;68.80
6514;BME280;3290;47.716;9.070;2022-07-24T09:34:27;97246.88;;;29.08;68.50
6514;BME280;3290;47.716;9.070;2022-07-24T09:37:03;97249.56;;;29.25;68.39
6514;BME280;3290;47.716;9.070;2022-07-24T09:39:31;97246.53;;;29.84;68.42
6514;BME280;3290;47.716;9.070;2022-07-24T09:42:00;97246.09;;;30.22;65.98
6514;BME280;3290;47.716;9.070;2022-07-24T09:44:26;97240.56;;;28.96;69.28
6514;BME280;3290;47.716;9.070;2022-07-24T09:47:08;97241.16;;;29.18;67.84
6514;BME280;3290;47.716;9.070;2022-07-24T09:49:35;97236.38;;;30.94;65.18
6514;BME280;3290;47.716;9.070;2022-07-24T09:52:09;97240.00;;;30.66;63.99
6514;BME280;3290;47.716;9.070;2022-07-24T09:54:46;97235.75;;;31.20;62.48
6514;BME280;3290;47.716;9.070;2022-07-24T09:57:27;97241.34;;;29.79;66.88
6514;BME280;3290;47.716;9.070;2022-07-24T10:00:00;97238.22;;;31.25;60.06
6514;BME280;3290;47.716;9.070;2022-07-24T10:02:31;97236.34;;;31.61;59.07
6514;BME280;3290;47.716;9.070;2022-07-24T10:04:58;97231.38;;;32.26;57.61
6514;BME280;3290;47.716;9.070;2022-07-24T10:07:25;97227.75;;;31.59;57.44
6514;BME280;3290;47.716;9.070;2022-07-24T10:09:54;97238.00;;;32.01;54.83
6514;BME280;3290;47.716;9.070;2022-07-24T10:12:22;97238.59;;;32.34;58.05
6514;BME280;3290;47.716;9.070;2022-07-24T10:14:49;97232.03;;;30.81;58.32
6514;BME280;3290;47.716;9.070;2022-07-24T10:17:16;97234.44;;;31.50;57.20
6514;BME280;3290;47.716;9.070;2022-07-24T10:19:51;97223.44;;;32.33;56.55
6514;BME280;3290;47.716;9.070;2022-07-24T10:22:20;97228.94;;;32.09;56.50
6514;BME280;3290;47.716;9.070;2022-07-24T10:27:27;97217.25;;;31.46;57.06
6514;BME280;3290;47.716;9.070;2022-07-24T10:29:55;97221.00;;;32.16;56.59
6514;BME280;3290;47.716;9.070;2022-07-24T10:32:22;97220.59;;;32.02;58.05
6514;BME280;3290;47.716;9.070;2022-07-24T10:40:40;97209.22;;;32.24;54.89
6514;BME280;3290;47.716;9.070;2022-07-24T10:53:51;97202.34;;;31.05;53.23
6514;BME280;3290;47.716;9.070;2022-07-24T10:56:25;97196.91;;;31.05;53.76
6514;BME280;3290;47.716;9.070;2022-07-24T10:59:11;97192.66;;;31.27;53.64
6514;BME280;3290;47.716;9.070;2022-07-24T11:06:48;97197.41;;;30.42;56.05
6514;BME280;3290;47.716;9.070;2022-07-24T11:09:15;97194.53;;;30.91;54.76
6514;BME280;3290;47.716;9.070;2022-07-24T11:12:02;97186.88;;;31.41;53.58
6514;BME280;3290;47.716;9.070;2022-07-24T11:20:11;97172.72;;;32.91;47.52
6514;BME280;3290;47.716;9.070;2022-07-24T11:25:20;97167.44;;;32.68;49.54
6514;BME280;3290;47.716;9.070;2022-07-24T11:30:17;97172.53;;;31.05;49.15
6514;BME280;3290;47.716;9.070;2022-07-24T11:32:43;97163.63;;;31.16;50.74
6514;BME280;3290;47.716;9.070;2022-07-24T11:35:09;97158.34;;;31.43;50.29
6514;BME280;3290;47.716;9.070;2022-07-24T11:37:36;97149.97;;;32.69;47.22
6514;BME280;3290;47.716;9.070;2022-07-24T11:40:02;97153.59;;;33.34;47.46
6514;BME280;3290;47.716;9.070;2022-07-24T11:42:29;97142.75;;;32.72;47.29
6514;BME280;3290;47.716;9.070;2022-07-24T11:44:55;97134.25;;;33.20;46.68
6514;BME280;3290;47.716;9.070;2022-07-24T11:47:23;97141.91;;;33.83;43.52
6514;BME280;3290;47.716;9.070;2022-07-24T11:52:21;97137.63;;;33.48;43.47
6514;BME280;3290;47.716;9.070;2022-07-24T11:54:49;97142.84;;;32.22;47.02
6514;BME280;3290;47.716;9.070;2022-07-24T11:57:20;97130.16;;;31.71;47.22
6514;BME280;3290;47.716;9.070;2022-07-24T11:59:48;97137.00;;;31.81;45.46
6514;BME280;3290;47.716;9.070;2022-07-24T12:02:14;97127.50;;;32.26;44.10
6514;BME280;3290;47.716;9.070;2022-07-24T12:04:40;97124.50;;;32.58;44.97
6514;BME280;3290;47.716;9.070;2022-07-24T12:07:12;97121.63;;;32.97;45.00
6514;BME280;3290;47.716;9.070;2022-07-24T12:14:50;97102.22;;;32.37;44.55
6514;BME280;3290;47.716;9.070;2022-07-24T12:17:16;97113.19;;;33.32;44.16
6514;BME280;3290;47.716;9.070;2022-07-24T12:19:50;97101.09;;;33.64;43.07
6514;BME280;3290;47.716;9.070;2022-07-24T12:22:17;97097.94;;;33.13;42.91
6514;BME280;3290;47.716;9.070;2022-07-24T12:24:43;97100.28;;;33.45;42.84
6514;BME280;3290;47.716;9.070;2022-07-24T12:27:08;97096.75;;;33.10;41.43
6514;BME280;3290;47.716;9.070;2022-07-24T12:29:41;97094.84;;;32.95;40.37
6514;BME280;3290;47.716;9.070;2022-07-24T12:32:17;97094.91;;;32.68;41.42
6514;BME280;3290;47.716;9.070;2022-07-24T12:34:46;97091.53;;;33.36;41.46
6514;BME280;3290;47.716;9.070;2022-07-24T12:37:16;97089.94;;;33.35;41.57
6514;BME280;3290;47.716;9.070;2022-07-24T12:39:49;97088.19;;;33.42;38.97
6514;BME280;3290;47.716;9.070;2022-07-24T12:42:15;97081.69;;;33.47;41.53
6514;BME280;3290;47.716;9.070;2022-07-24T12:44:42;97078.47;;;33.26;42.29
6514;BME280;3290;47.716;9.070;2022-07-24T12:47:09;97071.97;;;32.66;41.09
6514;BME280;3290;47.716;9.070;2022-07-24T12:49:42;97070.44;;;32.99;42.37
6514;BME280;3290;47.716;9.070;2022-07-24T12:52:24;97078.75;;;33.21;40.54
6514;BME280;3290;47.716;9.070;2022-07-24T12:54:51;97068.66;;;33.21;40.40
6514;BME280;3290;47.716;9.070;2022-07-24T12:57:20;97061.53;;;32.98;41.27
6514;BME280;3290;47.716;9.070;2022-07-24T12:59:48;97065.09;;;33.02;39.50
6514;BME280;3290;47.716;9.070;2022-07-24T13:02:20;97063.09;;;32.69;39.16
6514;BME280;3290;47.716;9.070;2022-07-24T13:04:51;97063.19;;;33.03;42.04
6514;BME280;3290;47.716;9.070;2022-07-24T13:07:20;97055.66;;;33.83;40.90
6514;BME280;3290;47.716;9.070;2022-07-24T13:09:47;97061.63;;;34.07;41.64
6514;BME280;3290;47.716;9.070;2022-07-24T13:12:13;97052.28;;;33.52;40.62
6514;BME280;3290;47.716;9.070;2022-07-24T13:14:39;97046.78;;;33.86;41.38
6514;BME280;3290;47.716;9.070;2022-07-24T13:17:10;97043.00;;;33.53;40.33
6514;BME280;3290;47.716;9.070;2022-07-24T13:19:40;97043.13;;;33.79;39.95
6514;BME280;3290;47.716;9.070;2022-07-24T13:22:06;97038.81;;;33.06;39.88
6514;BME280;3290;47.716;9.070;2022-07-24T13:24:31;97038.63;;;33.67;38.79
6514;BME280;3290;47.716;9.070;2022-07-24T13:27:03;97033.59;;;33.51;39.28
6514;BME280;3290;47.716;9.070;2022-07-24T13:29:28;97035.34;;;32.90;39.06
6514;BME280;3290;47.716;9.070;2022-07-24T13:31:54;97031.19;;;33.64;39.29
6514;BME280;3290;47.716;9.070;2022-07-24T13:34:20;97025.91;;;32.54;40.40
6514;BME280;3290;47.716;9.070;2022-07-24T13:36:46;97023.72;;;33.61;38.80
6514;BME280;3290;47.716;9.070;2022-07-24T13:39:12;97014.22;;;33.71;36.71
6514;BME280;3290;47.716;9.070;2022-07-24T13:41:37;97022.34;;;32.99;38.57
6514;BME280;3290;47.716;9.070;2022-07-24T13:44:03;97016.81;;;33.30;38.14
6514;BME280;3290;47.716;9.070;2022-07-24T13:46:30;97003.50;;;32.57;39.70
6514;BME280;3290;47.716;9.070;2022-07-24T13:48:55;97016.16;;;33.17;39.51
6514;BME280;3290;47.716;9.070;2022-07-24T13:51:20;97011.28;;;32.43;38.65
6514;BME280;3290;47.716;9.070;2022-07-24T13:53:46;97008.34;;;33.16;39.11
6514;BME280;3290;47.716;9.070;2022-07-24T13:56:11;97013.94;;;33.57;38.21
6514;BME280;3290;47.716;9.070;2022-07-24T13:58:37;97009.84;;;33.48;37.27